createdAt,value
2023-02-27T00:22:36.014Z,579.00
2023-02-27T00:23:35.981Z,579.00
2023-02-27T00:24:36.020Z,579.00
2023-02-27T00:25:36.030Z,580.00
2023-02-27T00:26:36.085Z,580.00
2023-02-27T00:27:36.125Z,580.00
2023-02-27T00:28:36.170Z,581.00
2023-02-27T00:29:36.267Z,582.00
2023-02-27T00:30:36.252Z,582.00
2023-02-27T00:31:36.359Z,581.00
2023-02-27T00:32:36.363Z,579.00
2023-02-27T00:33:36.325Z,582.00
2023-02-27T00:34:36.395Z,581.00
2023-02-27T00:35:36.463Z,580.00
2023-02-27T00:36:36.497Z,578.00
2023-02-27T00:37:36.586Z,576.00
2023-02-27T00:38:36.585Z,574.00
2023-02-27T00:39:37.404Z,574.00
2023-02-27T00:40:36.692Z,574.00
2023-02-27T00:41:36.725Z,572.00
2023-02-27T00:42:36.911Z,571.00
2023-02-27T00:43:36.780Z,571.00
2023-02-27T00:44:36.845Z,571.00
2023-02-27T00:45:36.916Z,569.00
2023-02-27T00:46:37.076Z,567.00
2023-02-27T00:47:36.984Z,568.00
2023-02-27T00:48:37.112Z,569.00
2023-02-27T00:49:37.066Z,569.00
2023-02-27T00:50:37.097Z,571.00
2023-02-27T00:51:37.128Z,573.00
2023-02-27T00:52:37.187Z,576.00
2023-02-27T00:53:37.231Z,575.00
2023-02-27T00:54:37.291Z,576.00
2023-02-27T00:55:37.403Z,577.00
2023-02-27T00:56:37.426Z,574.00
2023-02-27T00:57:37.531Z,574.00
2023-02-27T00:58:37.570Z,576.00
2023-02-27T00:59:37.637Z,577.00
2023-02-27T01:00:37.737Z,576.00
2023-02-27T01:01:37.775Z,578.00
2023-02-27T01:02:37.873Z,576.00
2023-02-27T01:03:37.948Z,574.00
2023-02-27T01:04:38.017Z,575.00
2023-02-27T01:05:38.099Z,577.00
2023-02-27T01:06:38.189Z,576.00
2023-02-27T01:07:38.197Z,577.00
2023-02-27T01:08:38.238Z,578.00
2023-02-27T01:09:38.268Z,578.00
2023-02-27T01:10:38.335Z,579.00
2023-02-27T01:11:38.391Z,579.00
2023-02-27T01:12:38.462Z,579.00
2023-02-27T01:13:38.536Z,577.00
2023-02-27T01:14:38.643Z,577.00
2023-02-27T01:15:38.703Z,575.00
2023-02-27T01:16:38.810Z,577.00
2023-02-27T01:17:38.873Z,577.00
2023-02-27T01:18:39.047Z,579.00
2023-02-27T01:19:39.055Z,579.00
2023-02-27T01:20:39.143Z,575.00
2023-02-27T01:21:39.225Z,574.00
2023-02-27T01:22:39.320Z,571.00
2023-02-27T01:23:39.394Z,570.00
2023-02-27T01:24:40.422Z,572.00
2023-02-27T01:25:39.546Z,575.00
2023-02-27T01:26:39.633Z,575.00
2023-02-27T01:27:39.727Z,578.00
2023-02-27T01:28:39.930Z,577.00
2023-02-27T01:29:39.885Z,577.00
2023-02-27T03:13:45.961Z,563.00
2023-02-27T03:14:46.059Z,564.00
2023-02-27T03:15:46.070Z,564.00
2023-02-27T03:16:46.098Z,565.00
2023-02-27T03:17:46.157Z,565.00
2023-02-27T03:18:46.228Z,563.00
2023-02-27T03:19:46.264Z,565.00
2023-02-27T03:20:46.314Z,566.00
2023-02-27T03:21:46.363Z,569.00
2023-02-27T03:22:46.415Z,569.00
2023-02-27T03:23:46.473Z,569.00
2023-02-27T03:24:46.508Z,569.00
2023-02-27T03:25:46.555Z,571.00
2023-02-27T03:26:46.605Z,574.00
2023-02-27T03:27:46.662Z,574.00
2023-02-27T03:28:46.707Z,572.00
2023-02-27T03:29:46.757Z,572.00
2023-02-27T03:30:46.895Z,572.00
2023-02-27T03:31:47.056Z,572.00
2023-02-27T03:32:46.907Z,572.00
2023-02-27T03:33:46.969Z,573.00
2023-02-27T03:34:47.020Z,571.00
2023-02-27T03:35:47.056Z,572.00
2023-02-27T03:36:47.111Z,572.00
2023-02-27T03:37:47.149Z,570.00
2023-02-27T03:38:47.195Z,569.00
2023-02-27T03:39:47.308Z,568.00
2023-02-27T03:40:47.293Z,569.00
2023-02-27T03:41:47.342Z,568.00
2023-02-27T03:42:47.381Z,568.00
2023-02-27T03:43:47.422Z,566.00
2023-02-27T03:44:47.466Z,565.00
2023-02-27T03:45:47.526Z,566.00
2023-02-27T03:46:47.562Z,566.00
2023-02-27T03:47:47.654Z,564.00
2023-02-27T03:48:47.724Z,563.00
2023-02-27T03:49:48.456Z,563.00
2023-02-27T03:50:47.768Z,563.00
2023-02-27T03:51:48.462Z,562.00
2023-02-27T03:52:47.842Z,559.00
2023-02-27T03:53:47.886Z,560.00
2023-02-27T03:54:47.933Z,560.00
2023-02-27T03:55:47.986Z,562.00
2023-02-27T03:56:48.032Z,564.00
2023-02-27T03:57:48.086Z,563.00
2023-02-27T03:58:48.131Z,563.00
2023-02-27T03:59:48.190Z,564.00
2023-02-27T04:00:48.245Z,562.00
2023-02-27T04:01:48.283Z,561.00
2023-02-27T04:02:48.343Z,561.00
2023-02-27T04:03:48.370Z,560.00
2023-02-27T04:04:48.418Z,560.00
2023-02-27T04:05:48.467Z,562.00
2023-02-27T04:06:48.500Z,564.00
2023-02-27T04:07:48.542Z,565.00
2023-02-27T04:08:48.607Z,564.00
2023-02-27T04:09:48.639Z,563.00
2023-02-27T04:10:48.787Z,566.00
2023-02-27T04:11:48.743Z,569.00
2023-02-27T04:12:48.784Z,569.00
2023-02-27T04:13:48.828Z,567.00
2023-02-27T04:14:48.884Z,566.00
2023-02-27T04:15:48.947Z,565.00
2023-02-27T04:16:48.985Z,568.00
2023-02-27T04:17:49.019Z,567.00
2023-02-27T04:18:49.056Z,564.00
2023-02-27T04:19:49.104Z,564.00
2023-02-27T04:20:49.144Z,564.00
2023-02-27T04:21:49.203Z,565.00
2023-02-27T04:22:49.243Z,563.00
2023-02-27T04:23:49.301Z,564.00
2023-02-27T07:07:34.708Z,623.00
2023-02-27T07:07:58.613Z,623.00
2023-02-27T07:09:02.403Z,623.00
2023-02-27T07:09:56.965Z,624.00
2023-02-27T07:10:55.970Z,625.00
2023-02-27T07:11:55.982Z,624.00
2023-02-27T07:12:55.985Z,624.00
2023-02-27T07:13:56.007Z,623.00
2023-02-27T07:14:56.010Z,623.00
2023-02-27T07:15:56.052Z,622.00
2023-02-27T07:16:56.014Z,623.00
2023-02-27T07:17:56.526Z,620.00
2023-02-27T07:18:56.027Z,621.00
2023-02-27T07:19:56.032Z,621.00
2023-02-27T07:20:56.026Z,622.00
2023-02-27T07:21:56.043Z,624.00
2023-02-27T07:22:56.048Z,621.00
2023-02-27T07:23:56.067Z,620.00
2023-02-27T07:24:56.065Z,621.00
2023-02-27T07:25:56.060Z,620.00
2023-02-27T07:26:56.060Z,622.00
2023-02-27T07:27:56.071Z,622.00
2023-02-27T07:28:56.060Z,621.00
2023-02-27T07:29:56.075Z,621.00
2023-02-27T07:30:56.117Z,620.00
2023-02-27T07:31:56.142Z,617.00
2023-02-27T07:32:56.189Z,619.00
2023-02-27T07:33:56.207Z,618.00
2023-02-27T07:34:56.233Z,619.00
2023-02-27T07:35:56.363Z,621.00
2023-02-27T07:36:56.293Z,622.00
2023-02-27T07:37:56.319Z,623.00
2023-02-27T07:38:56.358Z,622.00
2023-02-27T07:39:56.393Z,621.00
2023-02-27T07:40:56.441Z,618.00
2023-02-27T07:41:56.568Z,618.00
2023-02-27T07:42:56.489Z,620.00
2023-02-27T07:43:56.529Z,621.00
2023-02-27T07:44:56.561Z,622.00
2023-02-27T07:45:56.599Z,623.00
2023-02-27T07:47:56.675Z,627.00
2023-02-27T07:48:56.701Z,629.00
2023-02-27T07:49:56.741Z,629.00
2023-02-27T07:50:56.758Z,629.00
2023-02-27T07:51:56.866Z,629.00
2023-02-27T08:01:57.081Z,628.00
2023-02-27T10:15:01.380Z,3017.00
2023-02-27T12:05:05.956Z,2559.00
2023-02-27T12:06:06.057Z,2557.00
2023-02-27T12:07:06.106Z,2555.00
2023-02-27T12:08:06.170Z,2552.00
2023-02-27T12:09:06.234Z,2545.00
2023-02-27T12:10:06.309Z,2543.00
2023-02-27T12:12:06.432Z,2529.00
2023-02-27T12:34:07.885Z,2457.00
2023-02-27T12:35:07.944Z,2457.00
2023-02-27T12:36:08.012Z,2451.00
2023-02-27T12:37:08.058Z,2447.00
2023-02-27T12:38:08.091Z,2439.00
2023-02-27T12:39:08.137Z,2433.00
2023-02-27T12:40:08.186Z,2426.00
2023-02-27T12:54:08.524Z,2390.00
2023-02-27T12:55:08.530Z,2384.00
2023-02-27T12:56:08.555Z,2383.00
2023-02-27T12:57:08.599Z,2380.00
2023-02-27T12:58:08.658Z,2380.00
2023-02-27T12:59:08.703Z,2377.00
2023-02-27T13:00:08.716Z,2375.00
2023-02-27T13:01:08.959Z,2374.00
2023-02-27T13:02:08.740Z,2374.00
2023-02-27T13:03:08.853Z,2364.00
2023-02-27T13:04:08.824Z,2364.00
2023-02-27T13:05:08.837Z,2362.00
2023-02-27T13:06:08.840Z,2357.00
2023-02-27T13:07:09.158Z,2357.00
2023-02-27T13:08:08.908Z,2351.00
2023-02-27T13:09:08.985Z,2345.00
2023-02-27T13:10:08.924Z,2343.00
2023-02-27T13:11:08.960Z,2339.00
2023-02-27T13:12:08.986Z,2336.00
2023-02-27T13:13:09.785Z,2333.00
2023-02-27T13:14:09.011Z,2327.00
2023-02-27T13:15:09.158Z,2326.00
2023-02-27T13:16:09.083Z,2320.00
2023-02-27T13:17:09.083Z,2319.00
2023-02-27T13:18:09.235Z,2319.00
2023-02-27T13:19:09.134Z,2319.00
2023-02-27T13:20:09.161Z,2318.00
2023-02-27T13:21:09.169Z,2309.00
2023-02-27T13:22:09.204Z,2304.00
2023-02-27T13:23:09.318Z,2301.00
2023-02-27T17:36:15.943Z,1798.00
2023-02-27T17:37:15.992Z,1796.00
2023-02-27T17:38:16.038Z,1792.00
2023-02-27T17:39:16.088Z,1790.00
2023-02-27T17:40:16.206Z,1789.00
2023-02-27T17:41:16.204Z,1787.00
2023-02-27T17:42:16.257Z,1783.00
2023-02-27T17:44:16.364Z,1778.00
2023-02-27T17:45:16.420Z,1775.00
2023-02-27T17:46:16.486Z,1773.00
2023-02-27T17:47:16.523Z,1767.00
2023-02-27T17:48:16.578Z,1766.00
2023-02-27T17:49:16.638Z,1767.00
2023-02-27T17:50:16.697Z,1763.00
2023-02-27T17:51:16.730Z,1760.00
2023-02-27T17:52:16.874Z,1759.00
2023-02-27T17:53:16.840Z,1756.00
2023-02-27T17:54:16.886Z,1750.00
2023-02-27T17:55:16.944Z,1751.00
2023-02-27T17:56:17.010Z,1749.00
2023-02-27T17:57:17.036Z,1749.00
2023-02-27T17:58:17.101Z,1751.00
2023-02-27T17:59:17.159Z,1756.00
2023-02-27T18:00:17.191Z,1758.00
2023-02-27T20:20:26.302Z,1517.00
2023-02-27T20:25:26.059Z,1506.00
2023-02-27T20:26:26.427Z,1501.00
2023-02-27T20:27:26.124Z,1499.00
2023-02-27T20:28:26.211Z,1501.00
2023-02-27T20:29:26.282Z,1502.00
2023-02-27T20:30:26.336Z,1502.00
2023-02-27T20:31:27.123Z,1501.00
2023-02-27T20:32:26.595Z,1498.00
2023-02-27T20:33:26.594Z,1496.00
2023-02-27T20:34:26.692Z,1489.00
2023-02-27T20:35:26.721Z,1484.00
2023-02-27T20:42:27.212Z,1493.00
2023-02-27T20:43:27.265Z,1493.00
2023-02-27T20:44:27.346Z,1493.00
2023-02-27T20:45:27.420Z,1490.00
2023-02-27T20:46:27.510Z,1488.00
2023-02-27T20:47:27.560Z,1485.00
2023-02-27T20:48:27.632Z,1481.00
2023-02-27T20:49:27.709Z,1482.00
2023-02-27T20:50:27.779Z,1478.00
2023-02-27T20:51:28.216Z,1480.00
2023-02-27T20:52:27.937Z,1475.00
2023-02-27T20:53:28.015Z,1473.00
2023-02-27T20:54:28.093Z,1475.00
2023-02-27T20:55:28.163Z,1471.00
2023-02-27T20:56:28.314Z,1465.00
2023-02-27T20:57:28.313Z,1468.00
2023-02-27T20:58:28.387Z,1466.00
2023-02-27T20:59:28.459Z,1466.00
2023-02-27T21:00:28.530Z,1468.00
2023-02-27T21:01:29.004Z,1468.00
2023-02-27T21:02:28.671Z,1468.00
2023-02-27T21:03:31.214Z,1467.00
2023-02-27T21:05:28.771Z,1466.00
2023-02-27T21:06:28.788Z,1465.00
2023-02-27T21:07:28.811Z,1463.00
2023-02-27T21:08:28.798Z,1464.00
2023-02-27T21:10:28.807Z,1462.00
2023-02-27T21:11:29.215Z,1460.00
2023-02-27T21:12:28.896Z,1455.00
2023-02-27T21:13:28.948Z,1452.00
2023-02-27T21:14:29.011Z,1448.00
2023-02-27T22:45:36.030Z,1343.00
2023-02-27T22:46:36.958Z,1340.00
2023-02-27T22:47:36.120Z,1339.00
2023-02-27T22:48:36.212Z,1337.00
2023-02-27T22:49:36.325Z,1337.00
2023-02-27T22:50:36.353Z,1337.00
2023-02-27T22:51:36.438Z,1337.00
